createdAt,value
2023-05-24T00:00:13.229Z,9.38
2023-05-24T00:02:43.929Z,16.50
2023-05-24T00:05:11.338Z,17.25
2023-05-24T00:07:38.974Z,18.50
2023-05-24T00:10:07.071Z,10.95
2023-05-24T00:12:34.223Z,14.20
2023-05-24T00:15:01.177Z,13.43
2023-05-24T00:17:30.337Z,7.30
2023-05-24T00:19:57.427Z,9.90
2023-05-24T00:22:25.134Z,12.88
2023-05-24T00:24:52.151Z,10.35
2023-05-24T00:27:19.494Z,19.35
2023-05-24T00:29:46.555Z,17.23
2023-05-24T00:32:13.728Z,6.07
2023-05-24T00:34:41.241Z,11.13
2023-05-24T00:37:08.242Z,14.23
2023-05-24T00:39:35.316Z,18.00
2023-05-24T00:42:02.916Z,11.05
2023-05-24T00:44:30.198Z,14.80
2023-05-24T00:46:57.584Z,10.73
2023-05-24T00:49:24.689Z,11.32
2023-05-24T00:51:53.484Z,10.30
2023-05-24T00:54:21.073Z,20.02
2023-05-24T00:56:49.162Z,8.48
2023-05-24T00:59:16.237Z,15.70
2023-05-24T01:01:47.125Z,10.57
2023-05-24T01:04:14.972Z,11.15
2023-05-24T01:07:04.214Z,10.88
2023-05-24T01:09:39.864Z,10.85
2023-05-24T01:12:12.340Z,11.73
2023-05-24T01:15:05.079Z,12.25
2023-05-24T01:18:01.876Z,7.93
2023-05-24T01:20:33.276Z,13.65
2023-05-24T01:23:00.780Z,10.13
2023-05-24T01:25:52.403Z,17.95
2023-05-24T01:28:19.772Z,11.45
2023-05-24T01:30:47.324Z,8.18
2023-05-24T01:33:15.074Z,15.60
2023-05-24T01:35:42.753Z,16.15
2023-05-24T01:38:12.100Z,10.35
2023-05-24T01:40:40.575Z,14.60
2023-05-24T01:43:20.830Z,11.93
2023-05-24T01:46:19.259Z,16.88
2023-05-24T01:48:48.898Z,13.10
2023-05-24T01:51:22.596Z,14.10
2023-05-24T01:53:52.336Z,12.73
2023-05-24T01:56:20.809Z,11.15
2023-05-24T01:58:52.754Z,13.38
2023-05-24T02:01:20.115Z,12.85
2023-05-24T02:03:47.744Z,10.13
2023-05-24T02:06:15.084Z,16.33
2023-05-24T02:08:42.334Z,14.23
2023-05-24T02:11:09.696Z,10.60
2023-05-24T02:13:36.934Z,15.35
2023-05-24T02:16:05.182Z,14.25
2023-05-24T02:18:34.882Z,11.48
2023-05-24T02:21:03.604Z,16.50
2023-05-24T02:23:30.706Z,10.38
2023-05-24T02:26:00.185Z,12.85
2023-05-24T02:28:27.170Z,10.52
2023-05-24T02:30:54.492Z,11.88
2023-05-24T02:33:21.849Z,8.75
2023-05-24T02:35:49.825Z,13.55
2023-05-24T02:38:16.823Z,12.90
2023-05-24T02:40:43.967Z,6.18
2023-05-24T02:43:11.385Z,14.07
2023-05-24T02:45:38.634Z,9.27
2023-05-24T02:48:05.676Z,15.57
2023-05-24T02:50:33.008Z,17.23
2023-05-24T02:53:00.699Z,17.30
2023-05-24T02:55:29.149Z,11.05
2023-05-24T02:57:56.731Z,12.93
2023-05-24T03:00:25.006Z,15.75
2023-05-24T03:02:55.620Z,5.75
2023-05-24T03:05:22.696Z,11.65
2023-05-24T03:07:51.081Z,16.05
2023-05-24T03:10:18.727Z,13.30
2023-05-24T03:12:45.675Z,8.52
2023-05-24T03:15:12.597Z,6.53
2023-05-24T03:17:39.601Z,13.90
2023-05-24T03:20:07.348Z,12.35
2023-05-24T03:22:34.954Z,13.55
2023-05-24T03:25:03.553Z,18.48
2023-05-24T03:27:30.849Z,13.98
2023-05-24T03:29:58.182Z,13.88
2023-05-24T03:32:29.128Z,16.15
2023-05-24T03:34:57.657Z,13.43
2023-05-24T03:37:25.216Z,13.88
2023-05-24T03:39:53.096Z,8.75
2023-05-24T03:42:46.314Z,17.63
2023-05-24T03:45:16.094Z,12.13
2023-05-24T03:47:46.783Z,10.80
2023-05-24T03:50:14.415Z,17.85
2023-05-24T03:52:42.678Z,8.23
2023-05-24T03:55:10.331Z,12.30
2023-05-24T03:57:37.696Z,13.63
2023-05-24T04:00:07.229Z,13.07
2023-05-24T04:02:41.016Z,15.90
2023-05-24T04:05:12.234Z,13.80
2023-05-24T04:07:40.339Z,13.25
2023-05-24T04:10:08.344Z,14.82
2023-05-24T04:12:35.770Z,8.35
2023-05-24T04:15:02.853Z,9.85
2023-05-24T04:17:34.755Z,12.18
2023-05-24T04:20:02.472Z,14.02
2023-05-24T04:22:30.526Z,6.65
2023-05-24T04:24:58.265Z,10.10
2023-05-24T04:27:26.168Z,11.60
2023-05-24T04:29:54.434Z,14.85
2023-05-24T04:32:21.881Z,8.75
2023-05-24T04:34:49.156Z,7.05
2023-05-24T04:37:17.439Z,18.35
2023-05-24T04:42:13.499Z,13.77
2023-05-24T04:44:45.070Z,15.48
2023-05-24T04:47:12.957Z,14.77
2023-05-24T04:49:40.393Z,10.73
2023-05-24T04:52:08.121Z,18.55
2023-05-24T04:54:35.074Z,19.48
2023-05-24T04:57:01.982Z,19.52
2023-05-24T04:59:28.902Z,17.27
2023-05-24T05:01:56.318Z,15.50
2023-05-24T05:04:23.613Z,15.73
2023-05-24T05:06:50.559Z,19.42
2023-05-24T05:09:17.702Z,12.52
2023-05-24T05:11:45.399Z,22.45
2023-05-24T05:14:12.464Z,21.85
2023-05-24T05:16:39.603Z,19.13
2023-05-24T05:19:07.042Z,19.67
2023-05-24T05:24:16.972Z,18.85
2023-05-24T05:26:44.290Z,15.55
2023-05-24T05:29:11.227Z,15.23
2023-05-24T05:31:39.573Z,20.98
2023-05-24T05:34:10.002Z,19.13
2023-05-24T05:36:41.077Z,16.05
2023-05-24T05:39:11.497Z,21.30
2023-05-24T05:41:46.834Z,18.60
2023-05-24T05:44:14.323Z,17.02
2023-05-24T05:46:44.034Z,18.65
2023-05-24T05:49:11.185Z,18.83
2023-05-24T05:51:39.155Z,17.90
2023-05-24T05:54:06.488Z,22.27
2023-05-24T05:56:33.448Z,19.05
2023-05-24T05:59:02.952Z,24.70
2023-05-24T06:01:42.181Z,27.53
2023-05-24T06:04:09.304Z,21.88
2023-05-24T06:06:36.298Z,27.52
2023-05-24T06:09:03.536Z,22.52
2023-05-24T06:11:31.370Z,17.30
2023-05-24T06:13:58.278Z,25.98
2023-05-24T06:16:25.229Z,24.45
2023-05-24T06:19:04.417Z,23.38
2023-05-24T06:23:59.850Z,31.00
2023-05-24T06:26:28.100Z,22.58
2023-05-24T06:28:55.724Z,28.75
2023-05-24T06:31:23.074Z,31.48
2023-05-24T06:34:02.771Z,24.35
2023-05-24T06:36:34.207Z,25.65
2023-05-24T06:39:01.609Z,27.02
2023-05-24T06:41:28.952Z,23.98
2023-05-24T06:43:55.817Z,26.95
2023-05-24T06:46:23.281Z,21.63
2023-05-24T06:48:50.378Z,22.10
2023-05-24T06:51:17.359Z,35.17
2023-05-24T06:53:44.635Z,24.60
2023-05-24T06:56:11.937Z,20.58
2023-05-24T06:58:38.869Z,24.67
2023-05-24T07:01:06.218Z,29.73
2023-05-24T07:03:33.228Z,22.92
2023-05-24T07:06:00.250Z,21.50
2023-05-24T07:08:27.592Z,26.00
2023-05-24T07:10:54.981Z,23.55
2023-05-24T07:13:22.181Z,24.83
2023-05-24T07:15:49.751Z,29.88
2023-05-24T07:18:16.700Z,21.15
2023-05-24T07:20:43.958Z,25.27
2023-05-24T07:23:12.052Z,23.75
2023-05-24T07:25:39.388Z,39.92
2023-05-24T07:28:06.234Z,23.83
2023-05-24T07:30:34.054Z,33.88
2023-05-24T07:33:02.056Z,25.50
2023-05-24T07:35:30.092Z,28.67
2023-05-24T07:37:57.128Z,35.08
2023-05-24T07:40:24.080Z,23.50
2023-05-24T07:42:51.005Z,36.10
2023-05-24T07:45:18.351Z,27.77
2023-05-24T07:47:45.407Z,17.33
2023-05-24T07:50:12.508Z,26.48
2023-05-24T07:52:39.630Z,26.98
2023-05-24T07:55:07.071Z,26.33
2023-05-24T07:57:34.116Z,20.67
2023-05-24T08:00:07.203Z,26.00
2023-05-24T08:02:39.035Z,22.08
2023-05-24T08:05:06.544Z,21.60
2023-05-24T08:07:33.555Z,24.45
2023-05-24T08:10:00.442Z,26.38
2023-05-24T08:12:30.277Z,17.33
2023-05-24T08:14:57.531Z,23.02
2023-05-24T08:17:24.877Z,26.05
2023-05-24T08:19:52.296Z,18.10
2023-05-24T08:22:19.721Z,38.60
2023-05-24T08:24:46.807Z,25.83
2023-05-24T08:27:14.753Z,24.30
2023-05-24T08:29:42.225Z,30.05
2023-05-24T08:32:09.563Z,24.15
2023-05-24T08:34:37.646Z,19.25
2023-05-24T08:37:05.365Z,20.60
2023-05-24T08:39:32.194Z,20.70
2023-05-24T08:44:35.421Z,24.45
2023-05-24T08:47:03.591Z,18.02
2023-05-24T08:49:33.577Z,28.85
2023-05-24T08:54:29.071Z,30.10
2023-05-24T08:56:57.319Z,25.38
2023-05-24T08:59:25.566Z,18.50
2023-05-24T09:01:54.552Z,17.40
2023-05-24T09:04:29.107Z,22.80
2023-05-24T09:06:57.112Z,25.05
2023-05-24T09:09:29.070Z,19.75
2023-05-24T09:11:59.238Z,12.57
2023-05-24T09:14:26.211Z,20.40
2023-05-24T09:16:53.678Z,21.27
2023-05-24T09:19:20.968Z,23.63
2023-05-24T09:21:49.747Z,21.63
2023-05-24T09:24:16.836Z,18.90
2023-05-24T09:26:43.655Z,20.40
2023-05-24T09:29:10.537Z,21.23
2023-05-24T09:31:39.612Z,16.17
2023-05-24T09:34:11.530Z,24.55
2023-05-24T09:36:45.158Z,16.98
2023-05-24T09:39:12.211Z,20.38
2023-05-24T09:41:39.258Z,23.95
2023-05-24T09:44:06.410Z,22.00
2023-05-24T09:46:38.537Z,14.55
2023-05-24T09:49:08.129Z,16.92
2023-05-24T09:51:39.207Z,27.30
2023-05-24T09:54:06.589Z,18.50
2023-05-24T09:56:34.745Z,21.30
2023-05-24T09:59:08.815Z,20.15
2023-05-24T10:01:36.211Z,18.00
2023-05-24T10:06:54.008Z,15.23
2023-05-24T10:09:21.029Z,21.08
2023-05-24T10:11:48.191Z,16.05
2023-05-24T10:14:15.735Z,10.63
2023-05-24T10:16:42.679Z,20.25
2023-05-24T10:19:09.717Z,16.38
2023-05-24T10:21:42.207Z,15.63
2023-05-24T10:24:11.146Z,21.33
2023-05-24T10:26:39.683Z,19.65
2023-05-24T10:29:10.688Z,18.92
2023-05-24T10:31:40.201Z,19.35
2023-05-24T10:34:09.388Z,20.15
2023-05-24T10:36:37.657Z,24.42
2023-05-24T10:39:05.020Z,19.30
2023-05-24T10:41:40.445Z,19.13
2023-05-24T10:41:46.538Z,16.70
2023-05-24T10:44:13.903Z,15.90
2023-05-24T10:47:13.137Z,14.18
2023-05-24T10:49:52.912Z,18.27
2023-05-24T10:52:20.639Z,23.33
2023-05-24T10:55:10.778Z,18.13
2023-05-24T10:57:38.974Z,15.77
2023-05-24T11:03:04.261Z,18.98
2023-05-24T11:05:36.476Z,15.32
2023-05-24T11:08:06.726Z,25.02
2023-05-24T11:10:35.727Z,20.13
2023-05-24T11:13:04.086Z,15.95
2023-05-24T11:15:31.080Z,20.05
2023-05-24T11:18:09.229Z,10.45
2023-05-24T11:20:36.634Z,21.73
2023-05-24T11:23:05.025Z,17.50
2023-05-24T11:25:33.876Z,20.85
2023-05-24T11:28:02.058Z,28.20
2023-05-24T11:30:28.983Z,20.17
2023-05-24T11:32:57.163Z,11.10
2023-05-24T11:35:27.831Z,19.35
2023-05-24T11:37:55.022Z,18.40
2023-05-24T11:40:22.134Z,16.35
2023-05-24T11:42:50.512Z,14.95
2023-05-24T11:45:18.994Z,15.98
2023-05-24T11:47:46.148Z,11.85
2023-05-24T11:50:17.033Z,17.83
2023-05-24T11:52:44.168Z,17.10
2023-05-24T11:55:16.471Z,21.63
2023-05-24T11:57:51.082Z,22.92
2023-05-24T12:00:27.663Z,15.85
2023-05-24T12:03:01.699Z,19.38
2023-05-24T12:05:31.821Z,18.13
2023-05-24T12:08:12.433Z,10.40
2023-05-24T12:10:41.681Z,18.15
2023-05-24T12:13:24.686Z,15.95
2023-05-24T12:15:56.810Z,17.92
2023-05-24T12:18:26.378Z,12.52
2023-05-24T12:20:53.742Z,12.77
2023-05-24T12:23:23.478Z,11.82
2023-05-24T12:25:50.632Z,16.58
2023-05-24T12:28:21.851Z,13.05
2023-05-24T12:30:49.988Z,14.50
2023-05-24T12:33:19.366Z,10.32
2023-05-24T12:35:50.275Z,17.98
2023-05-24T12:38:25.389Z,16.00
2023-05-24T12:41:08.213Z,13.73
2023-05-24T12:43:39.623Z,13.30
2023-05-24T12:46:06.966Z,12.00
2023-05-24T12:48:33.910Z,13.82
2023-05-24T12:51:02.107Z,11.10
2023-05-24T12:53:29.168Z,10.20
2023-05-24T12:55:56.511Z,16.83
2023-05-24T12:58:23.693Z,12.93
2023-05-24T13:00:51.984Z,12.20
2023-05-24T13:03:19.276Z,15.75
2023-05-24T13:05:47.304Z,13.32
2023-05-24T13:08:14.728Z,9.20
2023-05-24T13:10:41.961Z,5.18
2023-05-24T13:13:09.061Z,9.32
2023-05-24T13:15:37.826Z,5.60
2023-05-24T13:18:05.130Z,6.75
2023-05-24T13:20:32.185Z,9.23
2023-05-24T13:22:59.151Z,9.38
2023-05-24T13:25:26.718Z,10.60
2023-05-24T13:27:53.695Z,7.65
2023-05-24T13:30:27.548Z,5.45
2023-05-24T13:32:55.490Z,7.45
2023-05-24T13:35:25.525Z,4.80
2023-05-24T13:37:54.243Z,5.07
2023-05-24T13:40:21.281Z,5.28
2023-05-24T13:43:00.354Z,4.88
2023-05-24T13:45:33.224Z,5.47
2023-05-24T13:48:06.818Z,4.05
2023-05-24T13:50:35.552Z,4.50
2023-05-24T13:53:03.661Z,5.90
2023-05-24T13:55:32.307Z,4.15
2023-05-24T13:57:59.225Z,10.05
2023-05-24T14:00:26.102Z,5.15
2023-05-24T14:02:53.280Z,4.60
2023-05-24T14:07:51.438Z,5.88
2023-05-24T14:10:20.083Z,8.23
2023-05-24T14:12:59.633Z,10.20
2023-05-24T14:15:31.006Z,13.82
2023-05-24T14:18:00.778Z,5.63
2023-05-24T14:20:27.792Z,2.13
2023-05-24T14:22:56.473Z,3.20
2023-05-24T14:25:25.239Z,5.18
2023-05-24T14:27:52.193Z,8.68
2023-05-24T14:30:19.039Z,4.68
2023-05-24T14:32:45.930Z,5.25
2023-05-24T14:35:13.119Z,2.97
2023-05-24T14:37:40.028Z,5.05
2023-05-24T14:40:07.597Z,3.08
2023-05-24T14:42:34.769Z,7.47
2023-05-24T14:45:01.633Z,4.47
2023-05-24T14:47:28.598Z,4.95
2023-05-24T14:49:55.561Z,7.28
2023-05-24T14:52:22.392Z,4.20
2023-05-24T14:54:49.236Z,5.68
2023-05-24T14:57:16.595Z,6.50
2023-05-24T14:59:43.540Z,15.40
2023-05-24T15:02:10.812Z,8.27
2023-05-24T15:04:37.684Z,3.65
2023-05-24T15:07:04.647Z,7.53
2023-05-24T15:09:31.697Z,6.80
2023-05-24T15:11:58.862Z,7.35
2023-05-24T15:14:25.836Z,3.25
2023-05-24T15:16:52.810Z,3.28
2023-05-24T15:19:19.691Z,3.53
2023-05-24T15:21:46.569Z,2.90
2023-05-24T15:24:14.744Z,6.50
2023-05-24T15:26:41.740Z,9.88
2023-05-24T15:29:09.253Z,6.20
2023-05-24T15:31:36.442Z,7.22
2023-05-24T15:34:04.917Z,3.72
2023-05-24T15:36:32.568Z,6.60
2023-05-24T15:38:59.742Z,5.93
2023-05-24T15:41:27.304Z,7.63
2023-05-24T15:43:54.385Z,5.78
2023-05-24T15:46:22.484Z,4.57
2023-05-24T15:48:49.518Z,5.53
2023-05-24T15:53:46.260Z,9.48
2023-05-24T15:56:13.108Z,5.13
2023-05-24T15:58:40.141Z,5.53
2023-05-24T16:01:07.349Z,3.85
2023-05-24T16:03:34.494Z,5.03
2023-05-24T16:06:01.659Z,9.60
2023-05-24T16:08:28.711Z,7.60
2023-05-24T16:10:56.387Z,13.30
2023-05-24T16:13:23.849Z,4.15
2023-05-24T16:15:56.751Z,6.38
2023-05-24T16:18:23.813Z,4.25
2023-05-24T16:20:51.703Z,5.68
2023-05-24T16:23:19.473Z,7.05
2023-05-24T16:25:46.365Z,8.57
2023-05-24T16:28:13.751Z,9.65
2023-05-24T16:30:40.848Z,6.93
2023-05-24T16:33:07.825Z,7.95
2023-05-24T16:35:34.748Z,7.28
2023-05-24T16:38:01.633Z,11.25
2023-05-24T16:40:28.715Z,10.45
2023-05-24T16:42:55.669Z,4.85
2023-05-24T16:45:23.166Z,6.80
2023-05-24T16:47:50.309Z,7.60
2023-05-24T16:50:17.621Z,6.55
2023-05-24T16:52:45.004Z,6.45
2023-05-24T16:55:12.483Z,5.05
2023-05-24T16:57:39.400Z,5.70
2023-05-24T17:00:07.565Z,4.45
2023-05-24T17:02:35.268Z,5.07
2023-05-24T17:05:02.410Z,4.50
2023-05-24T17:07:29.270Z,3.80
2023-05-24T17:09:56.123Z,4.78
2023-05-24T17:12:23.062Z,2.85
2023-05-24T17:14:50.004Z,2.63
2023-05-24T17:17:17.040Z,4.28
2023-05-24T17:19:43.938Z,2.08
2023-05-24T17:22:11.548Z,2.72
2023-05-24T17:24:38.714Z,5.22
2023-05-24T17:27:05.894Z,4.68
2023-05-24T17:29:33.050Z,4.53
2023-05-24T17:32:00.298Z,3.03
2023-05-24T17:34:27.407Z,4.18
2023-05-24T17:36:54.466Z,4.68
2023-05-24T17:39:22.000Z,6.43
2023-05-24T17:41:48.837Z,3.20
2023-05-24T17:44:16.055Z,4.93
2023-05-24T17:46:43.040Z,3.92
2023-05-24T17:49:12.694Z,3.38
2023-05-24T17:51:39.547Z,5.25
2023-05-24T17:54:06.447Z,4.00
2023-05-24T17:56:33.284Z,7.22
2023-05-24T17:59:00.162Z,7.75
2023-05-24T18:01:28.986Z,4.68
2023-05-24T18:03:55.955Z,7.60
2023-05-24T18:06:22.909Z,5.18
2023-05-24T18:08:49.779Z,6.95
2023-05-24T18:11:16.816Z,3.13
2023-05-24T18:13:43.830Z,7.43
2023-05-24T18:16:11.787Z,7.53
2023-05-24T18:18:39.109Z,6.15
2023-05-24T18:21:06.596Z,9.63
2023-05-24T18:23:37.602Z,6.28
2023-05-24T18:26:11.974Z,6.68
2023-05-24T18:28:39.583Z,6.03
2023-05-24T18:31:09.000Z,3.53
2023-05-24T18:33:37.311Z,6.40
2023-05-24T18:36:05.930Z,10.85
2023-05-24T18:38:37.224Z,7.05
2023-05-24T18:41:06.327Z,6.05
2023-05-24T18:43:33.625Z,8.13
2023-05-24T18:46:01.082Z,6.63
2023-05-24T18:48:28.023Z,8.18
2023-05-24T18:50:55.349Z,5.13
2023-05-24T18:53:22.319Z,6.43
2023-05-24T18:55:49.451Z,10.95
2023-05-24T18:58:16.390Z,8.63
2023-05-24T19:00:43.671Z,7.45
2023-05-24T19:03:13.607Z,8.15
2023-05-24T19:05:43.502Z,8.00
2023-05-24T19:10:37.957Z,11.80
2023-05-24T19:13:06.760Z,9.73
2023-05-24T19:15:36.747Z,6.97
2023-05-24T19:18:03.797Z,6.63
2023-05-24T19:20:30.897Z,10.85
2023-05-24T19:22:58.390Z,8.32
2023-05-24T19:25:25.476Z,11.95
2023-05-24T19:27:59.034Z,11.77
2023-05-24T19:30:27.398Z,6.35
2023-05-24T19:32:54.433Z,6.88
2023-05-24T19:35:21.496Z,8.93
2023-05-24T19:37:48.388Z,10.50
2023-05-24T19:40:15.321Z,5.85
2023-05-24T19:42:42.277Z,5.88
2023-05-24T19:45:09.655Z,7.30
2023-05-24T19:47:36.696Z,13.05
2023-05-24T19:50:03.753Z,7.05
2023-05-24T19:52:30.779Z,6.30
2023-05-24T19:54:57.764Z,11.73
2023-05-24T19:57:24.673Z,7.95
2023-05-24T19:59:51.751Z,7.22
2023-05-24T20:02:18.661Z,6.15
2023-05-24T20:04:45.542Z,8.27
2023-05-24T20:07:12.674Z,6.30
2023-05-24T20:09:40.127Z,14.27
2023-05-24T20:12:07.648Z,8.13
2023-05-24T20:14:34.560Z,13.10
2023-05-24T20:17:02.365Z,8.63
2023-05-24T20:19:29.268Z,11.50
2023-05-24T20:21:56.258Z,12.40
2023-05-24T20:24:23.219Z,8.27
2023-05-24T20:26:50.109Z,10.40
2023-05-24T20:29:16.984Z,16.67
2023-05-24T20:31:44.028Z,12.77
2023-05-24T20:34:10.919Z,11.25
2023-05-24T20:36:37.902Z,11.85
2023-05-24T20:39:04.917Z,10.65
2023-05-24T20:41:31.946Z,10.40
2023-05-24T20:43:58.780Z,16.17
2023-05-24T20:46:25.973Z,15.00
2023-05-24T20:48:53.973Z,12.27
2023-05-24T20:51:23.032Z,12.85
2023-05-24T20:53:52.197Z,13.18
2023-05-24T20:56:20.339Z,18.85
2023-05-24T20:58:49.199Z,17.17
2023-05-24T21:01:16.747Z,13.55
2023-05-24T21:03:43.966Z,10.75
2023-05-24T21:06:11.124Z,16.92
2023-05-24T21:08:38.683Z,10.40
2023-05-24T21:11:05.584Z,13.85
2023-05-24T21:13:32.510Z,8.98
2023-05-24T21:15:59.492Z,14.10
2023-05-24T21:18:26.339Z,6.28
2023-05-24T21:20:53.270Z,6.25
2023-05-24T21:23:20.255Z,5.43
2023-05-24T21:25:47.191Z,9.00
2023-05-24T21:28:14.201Z,10.50
2023-05-24T21:30:41.203Z,8.32
2023-05-24T21:33:08.673Z,6.65
2023-05-24T21:35:35.646Z,12.48
2023-05-24T21:38:02.566Z,9.52
2023-05-24T21:40:29.484Z,14.77
2023-05-24T21:42:56.411Z,13.63
2023-05-24T21:45:23.273Z,14.45
2023-05-24T21:47:50.274Z,8.90
2023-05-24T21:50:17.141Z,14.52
2023-05-24T21:52:44.036Z,12.73
2023-05-24T21:55:10.887Z,7.72
2023-05-24T21:57:38.015Z,12.20
2023-05-24T22:00:05.267Z,19.33
2023-05-24T22:02:32.429Z,8.93
2023-05-24T22:04:59.410Z,12.02
2023-05-24T22:07:26.300Z,10.40
2023-05-24T22:09:53.191Z,12.70
2023-05-24T22:12:20.075Z,13.20
2023-05-24T22:14:46.957Z,13.93
2023-05-24T22:17:14.238Z,11.70
2023-05-24T22:19:41.329Z,14.05
2023-05-24T22:22:09.862Z,12.30
2023-05-24T22:24:36.817Z,13.40
2023-05-24T22:27:03.929Z,10.50
2023-05-24T22:29:30.982Z,10.30
2023-05-24T22:31:57.934Z,12.23
2023-05-24T22:34:30.916Z,13.75
2023-05-24T22:36:58.818Z,12.80
2023-05-24T22:39:25.833Z,8.77
2023-05-24T22:41:53.547Z,10.45
2023-05-24T22:44:20.804Z,9.48
2023-05-24T22:46:49.762Z,15.95
2023-05-24T22:49:19.633Z,9.65
2023-05-24T22:51:48.184Z,9.05
2023-05-24T22:54:15.799Z,9.88
2023-05-24T22:56:43.895Z,10.05
2023-05-24T22:59:11.285Z,8.15
2023-05-24T23:01:38.441Z,14.85
2023-05-24T23:04:19.579Z,7.75
2023-05-24T23:06:49.458Z,10.30
2023-05-24T23:09:17.728Z,5.00
2023-05-24T23:11:46.130Z,7.95
2023-05-24T23:14:14.157Z,8.20
2023-05-24T23:16:45.818Z,6.32
2023-05-24T23:19:18.589Z,7.72
2023-05-24T23:21:46.461Z,11.43
2023-05-24T23:24:15.739Z,6.10
2023-05-24T23:26:42.806Z,12.65
2023-05-24T23:29:09.920Z,10.20
2023-05-24T23:31:37.158Z,10.60
2023-05-24T23:34:05.399Z,7.28
2023-05-24T23:36:32.406Z,7.40
2023-05-24T23:38:59.332Z,9.00
2023-05-24T23:41:26.554Z,8.27
2023-05-24T23:43:53.551Z,9.18
2023-05-24T23:46:20.576Z,8.75
2023-05-24T23:48:47.627Z,9.00
2023-05-24T23:51:14.527Z,11.68
2023-05-24T23:53:41.438Z,8.50
2023-05-24T23:56:08.267Z,11.27
2023-05-24T23:58:35.965Z,10.75
